createdAt,value
2016-12-29T00:00:43.431Z,21.47
2016-12-29T00:01:42.660Z,21.5
2016-12-29T00:02:43.477Z,21.49
2016-12-29T00:03:42.718Z,21.47
2016-12-29T00:04:43.135Z,21.47
2016-12-29T00:05:42.759Z,21.5
2016-12-29T00:06:43.593Z,21.44
2016-12-29T00:07:43.217Z,21.52
2016-12-29T00:08:43.642Z,21.5
2016-12-29T00:09:43.274Z,21.46
2016-12-29T00:10:43.691Z,21.5
2016-12-29T00:11:42.927Z,21.43
2016-12-29T00:12:42.956Z,21.49
2016-12-29T00:13:43.377Z,21.49
2016-12-29T00:14:43.414Z,21.46
2016-12-29T00:15:43.432Z,21.43
2016-12-29T00:16:43.460Z,21.43
2016-12-29T00:17:43.093Z,21.4
2016-12-29T00:18:43.119Z,21.4
2016-12-29T00:19:43.546Z,21.4
2016-12-29T00:20:43.967Z,21.44
2016-12-29T00:21:43.987Z,21.46
2016-12-29T00:22:44.020Z,21.4
2016-12-29T00:23:44.101Z,21.47
2016-12-29T00:24:44.089Z,21.44
2016-12-29T00:25:43.302Z,21.47
2016-12-29T00:26:43.731Z,21.4
2016-12-29T00:27:43.359Z,21.38
2016-12-29T00:28:43.794Z,21.53
2016-12-29T00:29:44.208Z,21.44
2016-12-29T00:30:43.443Z,21.43
2016-12-29T00:31:43.471Z,21.46
2016-12-29T00:32:44.291Z,21.44
2016-12-29T00:33:44.320Z,21.43
2016-12-29T00:34:44.349Z,21.44
2016-12-29T00:35:43.977Z,21.46
2016-12-29T00:36:43.610Z,21.43
2016-12-29T00:37:44.031Z,21.44
2016-12-29T00:38:44.455Z,21.43
2016-12-29T00:39:44.080Z,21.44
2016-12-29T00:40:44.509Z,21.4
2016-12-29T00:41:43.738Z,21.47
2016-12-29T00:42:44.563Z,21.4
2016-12-29T00:43:44.196Z,21.42
2016-12-29T00:44:44.219Z,21.42
2016-12-29T00:45:43.852Z,21.44
2016-12-29T00:46:44.278Z,21.38
2016-12-29T00:47:44.299Z,21.43
2016-12-29T00:48:44.727Z,21.42
2016-12-29T00:49:44.356Z,21.43
2016-12-29T00:50:43.985Z,21.47
2016-12-29T00:51:44.013Z,21.4
2016-12-29T00:52:44.438Z,21.47
2016-12-29T00:53:44.467Z,21.43
2016-12-29T00:54:44.488Z,21.43
2016-12-29T00:55:44.520Z,21.49
2016-12-29T00:56:44.145Z,21.4
2016-12-29T00:57:44.966Z,21.4
2016-12-29T00:58:45.011Z,21.44
2016-12-29T00:59:45.028Z,21.43
2016-12-29T01:00:44.657Z,21.46
2016-12-29T01:01:44.281Z,21.44
2016-12-29T01:02:44.710Z,21.4
2016-12-29T01:03:44.739Z,21.43
2016-12-29T01:04:44.359Z,21.43
2016-12-29T01:05:44.400Z,21.43
2016-12-29T01:06:44.813Z,21.38
2016-12-29T01:07:44.454Z,21.34
2016-12-29T01:08:45.277Z,21.37
2016-12-29T01:09:44.504Z,21.47
2016-12-29T01:10:44.925Z,21.32
2016-12-29T01:11:44.953Z,21.38
2016-12-29T01:12:44.982Z,21.37
2016-12-29T01:13:45.011Z,21.35
2016-12-29T01:14:44.638Z,21.4
2016-12-29T01:15:45.056Z,21.37
2016-12-29T01:16:45.088Z,21.4
2016-12-29T01:17:45.109Z,21.35
2016-12-29T01:18:45.142Z,21.31
2016-12-29T01:19:44.774Z,21.38
2016-12-29T01:20:45.601Z,21.38
2016-12-29T01:21:45.229Z,21.38
2016-12-29T01:22:44.853Z,21.38
2016-12-29T01:23:45.674Z,21.38
2016-12-29T01:24:45.702Z,21.37
2016-12-29T01:25:44.935Z,21.42
2016-12-29T01:26:45.755Z,21.38
2016-12-29T01:27:44.984Z,21.38
2016-12-29T01:28:45.433Z,21.37
2016-12-29T01:29:45.438Z,21.34
2016-12-29T01:30:45.467Z,21.29
2016-12-29T01:31:45.104Z,21.4
2016-12-29T01:32:45.508Z,21.35
2016-12-29T01:33:45.973Z,21.35
2016-12-29T01:34:45.970Z,21.31
2016-12-29T01:35:45.599Z,21.4
2016-12-29T01:36:46.021Z,21.38
2016-12-29T01:37:45.657Z,21.4
2016-12-29T01:38:45.682Z,21.4
2016-12-29T01:39:46.106Z,21.38
2016-12-29T01:40:45.338Z,21.35
2016-12-29T01:41:45.763Z,21.37
2016-12-29T01:42:45.396Z,21.4
2016-12-29T01:43:45.412Z,21.35
2016-12-29T01:44:45.853Z,21.38
2016-12-29T01:45:45.870Z,21.34
2016-12-29T01:46:45.895Z,21.35
2016-12-29T01:47:45.920Z,21.37
2016-12-29T01:48:45.957Z,21.4
2016-12-29T01:49:46.377Z,21.4
2016-12-29T01:50:46.010Z,21.35
2016-12-29T01:51:46.430Z,21.37
2016-12-29T01:52:46.059Z,21.44
2016-12-29T01:53:46.084Z,21.37
2016-12-29T01:54:46.109Z,21.35
2016-12-29T01:55:46.145Z,21.34
2016-12-29T01:56:46.178Z,21.42
2016-12-29T01:57:46.195Z,21.37
2016-12-29T01:58:45.820Z,21.42
2016-12-29T01:59:45.852Z,21.32
2016-12-29T02:00:46.276Z,21.35
2016-12-29T02:01:46.306Z,21.38
2016-12-29T02:02:46.339Z,21.37
2016-12-29T02:03:46.752Z,21.38
2016-12-29T02:04:46.797Z,21.38
2016-12-29T02:05:46.409Z,21.32
2016-12-29T02:06:46.070Z,21.35
2016-12-29T02:07:46.463Z,21.35
2016-12-29T02:08:46.091Z,21.34
2016-12-29T02:09:46.516Z,21.35
2016-12-29T02:10:46.153Z,21.37
2016-12-29T02:11:46.574Z,21.37
2016-12-29T02:12:46.598Z,21.35
2016-12-29T02:13:46.624Z,21.38
2016-12-29T02:14:47.048Z,21.32
2016-12-29T02:15:46.709Z,21.35
2016-12-29T02:16:46.705Z,21.34
2016-12-29T02:17:46.738Z,21.35
2016-12-29T02:18:46.763Z,21.42
2016-12-29T02:19:46.791Z,21.38
2016-12-29T02:20:46.452Z,21.37
2016-12-29T02:21:46.457Z,21.35
2016-12-29T02:22:46.474Z,21.42
2016-12-29T02:23:46.902Z,21.4
2016-12-29T02:24:46.523Z,21.35
2016-12-29T02:25:46.952Z,21.38
2016-12-29T02:26:46.577Z,21.38
2016-12-29T02:27:47.408Z,21.37
2016-12-29T02:28:47.035Z,21.31
2016-12-29T02:29:47.455Z,21.32
2016-12-29T02:30:47.485Z,21.28
2016-12-29T02:31:47.509Z,21.32
2016-12-29T02:32:47.165Z,21.38
2016-12-29T02:33:47.174Z,21.32
2016-12-29T02:34:47.191Z,21.31
2016-12-29T02:35:47.219Z,21.38
2016-12-29T02:36:47.246Z,21.38
2016-12-29T02:37:46.878Z,21.37
2016-12-29T02:38:47.306Z,21.38
2016-12-29T02:39:47.327Z,21.43
2016-12-29T02:40:47.351Z,21.32
2016-12-29T02:41:47.776Z,21.38
2016-12-29T02:42:47.409Z,21.37
2016-12-29T02:43:47.838Z,21.4
2016-12-29T02:44:47.463Z,21.31
2016-12-29T02:45:47.095Z,21.34
2016-12-29T02:46:47.517Z,21.29
2016-12-29T02:47:47.553Z,21.35
2016-12-29T02:48:47.569Z,21.28
2016-12-29T02:49:47.598Z,21.32
2016-12-29T02:50:47.228Z,21.34
2016-12-29T02:51:47.260Z,21.32
2016-12-29T02:52:47.677Z,21.37
2016-12-29T02:53:47.305Z,21.4
2016-12-29T02:54:47.730Z,21.37
2016-12-29T02:55:47.759Z,21.35
2016-12-29T02:56:48.185Z,21.38
2016-12-29T02:57:48.244Z,21.28
2016-12-29T02:58:47.849Z,21.29
2016-12-29T02:59:47.473Z,21.43
2016-12-29T03:00:47.895Z,21.43
2016-12-29T03:01:47.919Z,21.31
2016-12-29T03:02:47.552Z,21.34
2016-12-29T03:03:47.577Z,21.34
2016-12-29T03:04:48.402Z,21.31
2016-12-29T03:05:48.023Z,21.31
2016-12-29T03:06:48.059Z,21.29
2016-12-29T03:07:48.476Z,21.34
2016-12-29T03:08:48.142Z,21.29
2016-12-29T03:09:48.538Z,21.32
2016-12-29T03:10:48.159Z,21.29
2016-12-29T03:11:47.795Z,21.27
2016-12-29T03:12:47.821Z,21.34
2016-12-29T03:13:48.253Z,21.25
2016-12-29T03:14:48.285Z,21.32
2016-12-29T03:15:48.302Z,21.32
2016-12-29T03:16:48.323Z,21.32
2016-12-29T03:17:48.359Z,21.38
2016-12-29T03:18:47.985Z,21.37
2016-12-29T03:19:48.409Z,21.4
2016-12-29T03:20:48.831Z,21.34
2016-12-29T03:21:48.859Z,21.31
2016-12-29T03:22:48.876Z,21.29
2016-12-29T03:23:48.520Z,21.28
2016-12-29T03:24:48.941Z,21.28
2016-12-29T03:25:48.574Z,21.35
2016-12-29T03:26:48.594Z,21.35
2016-12-29T03:27:48.223Z,21.34
2016-12-29T03:28:49.048Z,21.35
2016-12-29T03:29:48.676Z,21.38
2016-12-29T03:30:48.701Z,21.34
2016-12-29T03:31:48.734Z,21.35
2016-12-29T03:32:49.156Z,21.31
2016-12-29T03:33:49.181Z,21.27
2016-12-29T03:34:49.209Z,21.25
2016-12-29T03:35:48.446Z,21.24
2016-12-29T03:36:49.262Z,21.24
2016-12-29T03:37:49.295Z,21.31
2016-12-29T03:38:48.523Z,21.34
2016-12-29T03:39:48.552Z,21.24
2016-12-29T03:40:48.580Z,21.27
2016-12-29T03:41:48.606Z,21.29
2016-12-29T03:42:49.026Z,21.29
2016-12-29T03:43:48.659Z,21.35
2016-12-29T03:44:48.684Z,21.34
2016-12-29T03:45:49.514Z,21.29
2016-12-29T03:46:49.134Z,21.29
2016-12-29T03:47:49.153Z,21.27
2016-12-29T03:48:48.783Z,21.27
2016-12-29T03:49:48.816Z,21.28
2016-12-29T03:50:49.248Z,21.35
2016-12-29T03:51:49.265Z,21.27
2016-12-29T03:52:48.894Z,21.21
2016-12-29T03:53:49.323Z,21.31
2016-12-29T03:54:48.956Z,21.24
2016-12-29T03:55:49.381Z,21.31
2016-12-29T03:56:49.405Z,21.34
2016-12-29T03:57:49.034Z,21.28
2016-12-29T03:58:49.455Z,21.31
2016-12-29T03:59:49.884Z,21.27
2016-12-29T04:00:49.908Z,21.35
2016-12-29T04:01:49.938Z,21.21
2016-12-29T04:02:49.562Z,21.27
2016-12-29T04:03:49.594Z,21.24
2016-12-29T04:04:49.219Z,21.29
2016-12-29T04:05:49.648Z,21.25
2016-12-29T04:06:50.068Z,21.31
2016-12-29T04:07:49.700Z,21.34
2016-12-29T04:08:49.726Z,21.22
2016-12-29T04:09:49.359Z,21.21
2016-12-29T04:10:49.388Z,21.35
2016-12-29T04:11:49.809Z,21.25
2016-12-29T04:12:49.839Z,21.24
2016-12-29T04:13:50.254Z,21.22
2016-12-29T04:14:50.283Z,21.24
2016-12-29T04:15:49.915Z,21.29
2016-12-29T04:16:49.944Z,21.24
2016-12-29T04:17:49.973Z,21.21
2016-12-29T04:18:49.606Z,21.24
2016-12-29T04:19:50.022Z,21.31
2016-12-29T04:20:50.051Z,21.21
2016-12-29T04:21:50.116Z,21.29
2016-12-29T04:22:49.709Z,21.22
2016-12-29T04:23:49.737Z,21.24
2016-12-29T04:24:50.154Z,21.28
2016-12-29T04:25:50.187Z,21.42
2016-12-29T04:26:50.212Z,21.28
2016-12-29T04:27:50.244Z,21.19
2016-12-29T04:28:49.861Z,21.21
2016-12-29T04:29:49.902Z,21.22
2016-12-29T04:30:49.922Z,21.24
2016-12-29T04:31:49.951Z,21.24
2016-12-29T04:32:49.968Z,21.27
2016-12-29T04:33:50.001Z,21.31
2016-12-29T04:34:50.429Z,21.34
2016-12-29T04:35:50.449Z,21.28
2016-12-29T04:36:50.483Z,21.25
2016-12-29T04:37:50.508Z,21.22
2016-12-29T04:38:50.533Z,21.24
2016-12-29T04:39:50.559Z,21.19
2016-12-29T04:40:50.981Z,21.28
2016-12-29T04:41:50.619Z,21.28
2016-12-29T04:42:50.644Z,21.28
2016-12-29T04:43:51.073Z,21.27
2016-12-29T04:44:50.691Z,21.27
2016-12-29T04:45:50.322Z,21.31
2016-12-29T04:46:50.755Z,21.24
2016-12-29T04:47:50.380Z,21.28
2016-12-29T04:48:50.805Z,21.28
2016-12-29T04:49:50.429Z,21.24
2016-12-29T04:50:50.862Z,21.28
2016-12-29T04:51:51.287Z,21.24
2016-12-29T04:52:50.912Z,21.25
2016-12-29T04:53:51.332Z,21.31
2016-12-29T04:54:51.364Z,21.21
2016-12-29T04:55:51.001Z,21.28
2016-12-29T04:56:51.422Z,21.28
2016-12-29T04:57:50.655Z,21.28
2016-12-29T04:58:51.064Z,21.34
2016-12-29T04:59:50.705Z,21.31
2016-12-29T05:00:51.117Z,21.34
2016-12-29T05:01:51.154Z,21.24
2016-12-29T05:02:51.179Z,21.35
2016-12-29T05:03:51.207Z,21.31
2016-12-29T05:04:51.625Z,21.25
2016-12-29T05:05:51.261Z,21.29
2016-12-29T05:06:51.686Z,21.24
2016-12-29T05:07:51.311Z,21.25
2016-12-29T05:08:51.339Z,21.25
2016-12-29T05:09:51.767Z,21.31
2016-12-29T05:10:50.999Z,21.25
2016-12-29T05:11:51.029Z,21.31
2016-12-29T05:12:51.054Z,21.28
2016-12-29T05:13:51.477Z,21.28
2016-12-29T05:14:51.100Z,21.27
2016-12-29T05:15:51.132Z,21.31
2016-12-29T05:16:51.161Z,21.28
2016-12-29T05:17:51.587Z,21.28
2016-12-29T05:18:52.003Z,21.31
2016-12-29T05:19:51.636Z,21.24
2016-12-29T05:20:51.664Z,21.25
2016-12-29T05:21:51.293Z,21.22
2016-12-29T05:22:51.710Z,21.25
2016-12-29T05:23:51.338Z,21.27
2016-12-29T05:24:51.375Z,21.24
2016-12-29T05:25:51.404Z,21.24
2016-12-29T05:26:51.430Z,21.24
2016-12-29T05:27:51.854Z,21.25
2016-12-29T05:28:51.481Z,21.24
2016-12-29T05:29:51.507Z,21.25
2016-12-29T05:30:51.928Z,21.24
2016-12-29T05:31:51.957Z,21.29
2016-12-29T05:32:52.381Z,21.28
2016-12-29T05:33:52.014Z,21.24
2016-12-29T05:34:52.034Z,21.25
2016-12-29T05:35:52.068Z,21.28
2016-12-29T05:36:51.692Z,21.25
2016-12-29T05:37:52.130Z,21.28
2016-12-29T05:38:51.754Z,21.22
2016-12-29T05:39:52.180Z,21.28
2016-12-29T05:40:52.198Z,21.29
2016-12-29T05:41:51.824Z,21.37
2016-12-29T05:42:52.249Z,21.21
2016-12-29T05:43:52.282Z,21.21
2016-12-29T05:44:52.310Z,21.24
2016-12-29T05:45:52.732Z,21.21
2016-12-29T05:46:52.758Z,21.24
2016-12-29T05:47:52.384Z,21.28
2016-12-29T05:48:52.418Z,21.25
2016-12-29T05:49:52.442Z,21.28
2016-12-29T05:50:52.871Z,21.25
2016-12-29T05:51:52.499Z,21.25
2016-12-29T05:52:52.516Z,21.28
2016-12-29T05:53:52.549Z,21.28
2016-12-29T05:54:52.975Z,21.22
2016-12-29T05:55:52.607Z,21.27
2016-12-29T05:56:53.019Z,21.29
2016-12-29T05:57:52.260Z,21.31
2016-12-29T05:58:53.077Z,21.29
2016-12-29T05:59:53.109Z,21.29
2016-12-29T06:00:53.126Z,21.25
2016-12-29T06:01:52.767Z,21.21
2016-12-29T06:02:52.787Z,21.24
2016-12-29T06:03:52.820Z,21.31
2016-12-29T06:04:52.450Z,21.22
2016-12-29T06:05:52.874Z,21.22
2016-12-29T06:06:52.496Z,21.27
2016-12-29T06:07:52.927Z,21.32
2016-12-29T06:08:52.589Z,21.37
2016-12-29T06:09:53.009Z,21.22
2016-12-29T06:10:52.606Z,21.25
2016-12-29T06:11:53.033Z,21.28
2016-12-29T06:12:53.455Z,21.31
2016-12-29T06:13:52.692Z,21.22
2016-12-29T06:14:52.713Z,21.28
2016-12-29T06:15:53.141Z,21.31
2016-12-29T06:16:52.773Z,21.37
2016-12-29T06:17:53.195Z,21.31
2016-12-29T06:18:53.224Z,21.42
2016-12-29T06:19:53.240Z,21.31
2016-12-29T06:20:53.281Z,21.31
2016-12-29T06:21:53.302Z,21.29
2016-12-29T06:22:53.723Z,21.35
2016-12-29T06:23:53.743Z,21.32
2016-12-29T06:24:53.384Z,21.28
2016-12-29T06:25:53.033Z,21.24
2016-12-29T06:26:53.430Z,21.22
2016-12-29T06:27:53.067Z,21.29
2016-12-29T06:28:53.103Z,21.21
2016-12-29T06:29:53.524Z,21.25
2016-12-29T06:30:53.540Z,21.24
2016-12-29T06:31:53.569Z,21.27
2016-12-29T06:32:53.991Z,21.32
2016-12-29T06:33:53.623Z,21.29
2016-12-29T06:34:53.651Z,21.25
2016-12-29T06:35:53.285Z,21.27
2016-12-29T06:36:54.097Z,21.28
2016-12-29T06:37:53.729Z,21.19
2016-12-29T06:38:54.154Z,21.29
2016-12-29T06:39:53.781Z,21.22
2016-12-29T06:40:53.413Z,21.25
2016-12-29T06:41:53.840Z,21.29
2016-12-29T06:42:53.865Z,21.29
2016-12-29T06:43:53.903Z,21.27
2016-12-29T06:44:53.927Z,21.28
2016-12-29T06:45:53.972Z,21.25
2016-12-29T06:46:53.980Z,21.31
2016-12-29T06:47:53.603Z,21.22
2016-12-29T06:48:53.626Z,21.28
2016-12-29T06:49:54.443Z,21.21
2016-12-29T06:50:54.075Z,21.32
2016-12-29T06:51:54.109Z,21.29
2016-12-29T06:52:54.530Z,21.29
2016-12-29T06:53:54.558Z,21.25
2016-12-29T06:54:53.786Z,21.24
2016-12-29T06:55:53.819Z,21.24
2016-12-29T06:56:53.840Z,21.29
2016-12-29T06:57:54.272Z,21.22
2016-12-29T06:58:53.897Z,21.22
2016-12-29T06:59:54.318Z,21.27
2016-12-29T07:00:54.356Z,21.25
2016-12-29T07:01:53.980Z,21.28
2016-12-29T07:02:54.789Z,21.31
2016-12-29T07:03:54.434Z,21.27
2016-12-29T07:04:54.062Z,21.28
2016-12-29T07:05:54.879Z,21.27
2016-12-29T07:06:54.960Z,21.29
2016-12-29T07:07:54.536Z,21.24
2016-12-29T07:08:54.957Z,21.22
2016-12-29T07:09:54.591Z,21.24
2016-12-29T07:10:54.619Z,21.19
2016-12-29T07:11:55.050Z,21.24
2016-12-29T07:12:54.280Z,21.29
2016-12-29T07:13:55.089Z,21.32
2016-12-29T07:14:54.334Z,21.35
2016-12-29T07:15:55.134Z,21.32
2016-12-29T07:16:55.179Z,21.37
2016-12-29T07:17:54.808Z,21.35
2016-12-29T07:18:55.224Z,21.31
2016-12-29T07:19:55.253Z,21.32
2016-12-29T07:20:54.490Z,21.34
2016-12-29T07:21:54.926Z,21.42
2016-12-29T07:22:55.339Z,21.35
2016-12-29T07:23:55.372Z,21.31
2016-12-29T07:24:54.997Z,21.34
2016-12-29T07:25:55.023Z,21.37
2016-12-29T07:26:54.655Z,21.34
2016-12-29T07:27:55.075Z,21.38
2016-12-29T07:28:55.104Z,21.37
2016-12-29T07:29:55.129Z,21.38
2016-12-29T07:30:55.554Z,21.43
2016-12-29T07:31:55.579Z,21.37
2016-12-29T07:32:55.620Z,21.37
2016-12-29T07:33:54.839Z,21.35
2016-12-29T07:34:55.652Z,21.32
2016-12-29T07:35:54.893Z,21.34
2016-12-29T07:36:55.314Z,21.38
2016-12-29T07:37:55.347Z,21.32
2016-12-29T07:38:55.768Z,21.38
2016-12-29T07:39:55.793Z,21.37
2016-12-29T07:40:55.825Z,21.29
2016-12-29T07:41:55.446Z,21.42
2016-12-29T07:42:55.475Z,21.38
2016-12-29T07:43:55.504Z,21.4
2016-12-29T07:44:55.929Z,21.38
2016-12-29T07:45:55.949Z,21.37
2016-12-29T07:46:55.585Z,21.4
2016-12-29T07:47:55.210Z,21.29
2016-12-29T07:48:56.035Z,21.35
2016-12-29T07:49:55.663Z,21.31
2016-12-29T07:50:55.295Z,21.34
2016-12-29T07:51:55.321Z,21.35
2016-12-29T07:52:55.746Z,21.29
2016-12-29T07:53:56.166Z,21.31
2016-12-29T07:54:55.804Z,21.32
2016-12-29T07:55:55.829Z,21.31
2016-12-29T07:56:56.247Z,21.37
2016-12-29T07:57:55.882Z,21.43
2016-12-29T07:58:55.902Z,21.31
2016-12-29T07:59:55.927Z,21.34
2016-12-29T08:00:55.964Z,21.4
2016-12-29T08:01:55.585Z,21.38
2016-12-29T08:02:55.618Z,21.44
2016-12-29T08:03:56.039Z,21.46
2016-12-29T08:04:56.471Z,21.46
2016-12-29T08:05:55.700Z,21.43
2016-12-29T08:06:55.729Z,21.46
2016-12-29T08:07:56.145Z,21.43
2016-12-29T08:08:56.570Z,21.47
2016-12-29T08:09:56.203Z,21.42
2016-12-29T08:10:56.629Z,21.47
2016-12-29T08:11:56.261Z,21.4
2016-12-29T08:12:56.277Z,21.44
2016-12-29T08:13:56.310Z,21.47
2016-12-29T08:14:56.730Z,21.42
2016-12-29T08:15:56.363Z,21.44
2016-12-29T08:16:56.788Z,21.42
2016-12-29T08:17:56.417Z,21.44
2016-12-29T08:18:56.446Z,21.43
2016-12-29T08:19:56.463Z,21.43
2016-12-29T08:20:56.495Z,21.43
2016-12-29T08:21:56.920Z,21.43
2016-12-29T08:22:56.553Z,21.38
2016-12-29T08:23:56.978Z,21.44
2016-12-29T08:24:56.606Z,21.43
2016-12-29T08:25:56.626Z,21.43
2016-12-29T08:26:56.660Z,21.42
2016-12-29T08:27:56.688Z,21.44
2016-12-29T08:28:56.713Z,21.4
2016-12-29T08:29:56.342Z,21.32
2016-12-29T08:30:56.370Z,21.4
2016-12-29T08:31:57.191Z,21.37
2016-12-29T08:32:56.420Z,21.42
2016-12-29T08:33:56.847Z,21.4
2016-12-29T08:34:56.874Z,21.43
2016-12-29T08:35:56.903Z,21.4
2016-12-29T08:36:57.328Z,21.37
2016-12-29T08:37:56.956Z,21.35
2016-12-29T08:38:56.981Z,21.46
2016-12-29T08:39:56.609Z,21.46
2016-12-29T08:40:56.682Z,21.44
2016-12-29T08:41:56.671Z,21.49
2016-12-29T08:42:57.092Z,21.52
2016-12-29T08:43:57.121Z,21.61
2016-12-29T08:44:57.149Z,21.68
2016-12-29T08:45:56.778Z,21.69
2016-12-29T08:46:57.203Z,21.68
2016-12-29T08:47:57.620Z,21.75
2016-12-29T08:48:57.256Z,21.75
2016-12-29T08:49:56.881Z,21.86
2016-12-29T08:50:57.310Z,21.9
2016-12-29T08:51:57.335Z,21.75
2016-12-29T08:52:56.967Z,21.79
2016-12-29T08:53:57.016Z,21.92
2016-12-29T08:54:57.420Z,21.9
2016-12-29T08:55:57.055Z,22
2016-12-29T08:56:57.494Z,22.07
2016-12-29T08:57:57.502Z,22.06
2016-12-29T08:58:57.923Z,22
2016-12-29T08:59:57.557Z,22.06
2016-12-29T09:00:57.581Z,22
2016-12-29T09:01:58.007Z,22.06
2016-12-29T09:02:57.635Z,22.06
2016-12-29T09:03:57.664Z,22.06
2016-12-29T09:04:57.292Z,22.06
2016-12-29T09:05:58.111Z,22.06
2016-12-29T09:06:57.350Z,22.09
2016-12-29T09:07:57.763Z,22
2016-12-29T09:08:57.805Z,21.98
2016-12-29T09:09:57.833Z,22
2016-12-29T09:10:58.249Z,22.06
2016-12-29T09:11:57.878Z,22.05
2016-12-29T09:12:57.513Z,22.03
2016-12-29T09:13:58.334Z,22.09
2016-12-29T09:14:58.353Z,21.98
2016-12-29T09:15:57.592Z,22.07
2016-12-29T09:16:58.414Z,22.02
2016-12-29T09:17:58.441Z,22.02
2016-12-29T09:18:57.670Z,21.98
2016-12-29T09:19:58.496Z,21.9
2016-12-29T09:20:57.729Z,22.02
2016-12-29T09:21:57.757Z,21.88
2016-12-29T09:22:58.201Z,21.92
2016-12-29T09:23:57.815Z,21.92
2016-12-29T09:24:58.240Z,21.92
2016-12-29T09:25:57.867Z,21.91
2016-12-29T09:26:58.287Z,21.88
2016-12-29T09:27:58.317Z,21.84
2016-12-29T09:28:58.734Z,21.84
2016-12-29T09:29:58.767Z,21.84
2016-12-29T09:30:58.791Z,21.86
2016-12-29T09:31:58.424Z,21.82
2016-12-29T09:32:58.453Z,21.82
2016-12-29T09:33:58.082Z,21.91
2016-12-29T09:34:58.539Z,21.9
2016-12-29T09:35:58.143Z,21.82
2016-12-29T09:36:58.165Z,21.77
2016-12-29T09:37:58.189Z,21.82
2016-12-29T09:38:58.617Z,21.8
2016-12-29T09:39:58.647Z,21.8
2016-12-29T09:40:58.671Z,21.8
2016-12-29T09:41:58.700Z,21.86
2016-12-29T09:42:58.725Z,21.75
2016-12-29T09:43:58.350Z,21.79
2016-12-29T09:44:58.384Z,21.82
2016-12-29T09:45:58.408Z,21.75
2016-12-29T09:46:58.836Z,21.74
2016-12-29T09:47:58.463Z,21.72
2016-12-29T09:48:58.497Z,21.74
2016-12-29T09:49:58.930Z,21.68
2016-12-29T09:50:58.951Z,21.68
2016-12-29T09:51:58.571Z,21.72
2016-12-29T09:52:59.000Z,21.74
2016-12-29T09:53:58.630Z,21.72
2016-12-29T09:54:59.054Z,21.68
2016-12-29T09:55:59.479Z,21.72
2016-12-29T09:56:59.504Z,21.74
2016-12-29T09:57:59.536Z,21.72
2016-12-29T09:58:59.160Z,21.72
2016-12-29T09:59:59.601Z,21.71
2016-12-29T10:00:59.610Z,21.72
2016-12-29T10:01:58.848Z,21.77
2016-12-29T10:02:59.669Z,21.79
2016-12-29T10:03:59.696Z,21.84
2016-12-29T10:04:59.380Z,21.83
2016-12-29T10:05:59.354Z,21.84
2016-12-29T10:06:59.391Z,21.84
2016-12-29T10:07:59.012Z,21.82
2016-12-29T10:08:59.040Z,21.91
2016-12-29T10:09:59.869Z,21.82
2016-12-29T10:10:59.888Z,21.88
2016-12-29T10:11:59.120Z,21.94
2016-12-29T10:12:59.147Z,21.84
2016-12-29T10:13:59.178Z,21.79
2016-12-29T10:14:59.601Z,21.79
2016-12-29T10:16:00.026Z,21.9
2016-12-29T10:16:59.650Z,21.8
2016-12-29T10:17:59.683Z,21.86
2016-12-29T10:18:59.311Z,21.84
2016-12-29T10:19:59.727Z,21.86
2016-12-29T10:21:00.169Z,21.82
2016-12-29T10:22:00.194Z,21.79
2016-12-29T10:23:00.211Z,21.86
2016-12-29T10:24:00.240Z,21.8
2016-12-29T10:25:00.269Z,21.84
2016-12-29T10:25:59.897Z,21.83
2016-12-29T10:26:59.930Z,21.82
2016-12-29T10:27:59.558Z,21.96
2016-12-29T10:28:59.979Z,21.83
2016-12-29T10:30:00.026Z,21.91
2016-12-29T10:31:00.012Z,21.94
2016-12-29T10:31:59.647Z,21.86
2016-12-29T10:32:59.671Z,21.82
2016-12-29T10:34:00.107Z,21.83
2016-12-29T10:35:00.133Z,21.86
2016-12-29T10:36:00.543Z,21.94
2016-12-29T10:37:00.171Z,21.91
2016-12-29T10:38:00.595Z,21.9
2016-12-29T10:39:00.626Z,21.99
2016-12-29T10:40:00.263Z,21.86
2016-12-29T10:41:00.677Z,22.03
2016-12-29T10:42:00.713Z,22
2016-12-29T10:42:59.947Z,21.91
2016-12-29T10:44:00.763Z,22
2016-12-29T10:45:00.392Z,21.99
2016-12-29T10:46:00.816Z,22.14
2016-12-29T10:47:00.055Z,22.02
2016-12-29T10:48:00.479Z,22.06
2016-12-29T10:49:00.908Z,22.05
2016-12-29T10:50:00.929Z,22.05
2016-12-29T10:51:00.957Z,22.02
2016-12-29T10:52:00.593Z,22.07
2016-12-29T10:53:01.023Z,22.06
2016-12-29T10:54:00.647Z,21.99
2016-12-29T10:55:00.688Z,22.03
2016-12-29T10:56:01.090Z,21.99
2016-12-29T10:57:00.725Z,22.03
2016-12-29T10:58:00.754Z,22.07
2016-12-29T10:59:00.821Z,22.05
2016-12-29T11:00:01.206Z,22.05
2016-12-29T11:01:00.441Z,22.06
2016-12-29T11:02:00.864Z,22.05
2016-12-29T11:03:00.895Z,22.06
2016-12-29T11:04:00.923Z,22.05
2016-12-29T11:05:01.337Z,22.05
2016-12-29T11:06:00.590Z,22.02
2016-12-29T11:07:01.001Z,22.07
2016-12-29T11:08:01.043Z,22.05
2016-12-29T11:09:01.090Z,22.02
2016-12-29T11:10:01.485Z,22.06
2016-12-29T11:11:01.112Z,22.07
2016-12-29T11:12:01.143Z,22.05
2016-12-29T11:13:01.170Z,22.06
2016-12-29T11:14:01.593Z,21.99
2016-12-29T11:15:01.229Z,22.02
2016-12-29T11:16:01.248Z,22.05
2016-12-29T11:17:01.280Z,22.02
2016-12-29T11:18:00.909Z,21.9
2016-12-29T11:19:01.362Z,21.92
2016-12-29T11:20:01.786Z,21.86
2016-12-29T11:21:01.803Z,21.94
2016-12-29T11:22:01.836Z,21.9
2016-12-29T11:23:01.072Z,21.92
2016-12-29T11:24:01.501Z,21.96
2016-12-29T11:25:01.530Z,21.96
2016-12-29T11:26:01.555Z,21.96
2016-12-29T11:27:01.592Z,21.86
2016-12-29T11:28:02.012Z,21.83
2016-12-29T11:29:01.233Z,21.8
2016-12-29T11:30:01.290Z,21.84
2016-12-29T11:31:01.693Z,21.86
2016-12-29T11:32:02.114Z,21.91
2016-12-29T11:33:02.144Z,21.91
2016-12-29T11:34:01.776Z,22
2016-12-29T11:35:01.406Z,21.94
2016-12-29T11:36:01.435Z,21.91
2016-12-29T11:37:01.863Z,21.92
2016-12-29T11:38:01.491Z,21.9
2016-12-29T11:39:01.944Z,22.02
2016-12-29T11:40:01.937Z,21.92
2016-12-29T11:41:01.974Z,22.03
2016-12-29T11:42:01.995Z,22.07
2016-12-29T11:43:02.040Z,22.05
2016-12-29T11:44:01.655Z,22.03
2016-12-29T11:45:01.676Z,22.06
2016-12-29T11:46:02.504Z,22.05
2016-12-29T11:47:02.130Z,22.05
2016-12-29T11:48:02.165Z,22.07
2016-12-29T11:49:02.185Z,22.02
2016-12-29T11:50:01.824Z,22.03
2016-12-29T11:51:01.848Z,22.07
2016-12-29T11:52:02.276Z,22.17
2016-12-29T11:53:02.690Z,22.15
2016-12-29T11:54:02.331Z,22.03
2016-12-29T11:55:02.555Z,22.15
2016-12-29T11:56:01.980Z,22.07
2016-12-29T11:57:02.409Z,22.1
2016-12-29T11:58:02.068Z,22.07
2016-12-29T11:59:02.071Z,22.05
2016-12-29T12:00:02.093Z,22.06
2016-12-29T12:01:02.126Z,22.09
2016-12-29T12:02:02.540Z,22.07
2016-12-29T12:03:02.169Z,22.1
2016-12-29T12:04:02.614Z,22.17
2016-12-29T12:05:02.631Z,22.02
2016-12-29T12:06:02.655Z,22.09
2016-12-29T12:07:02.288Z,22.09
2016-12-29T12:08:03.109Z,22.09
2016-12-29T12:09:02.745Z,22.06
2016-12-29T12:10:03.163Z,22.09
2016-12-29T12:11:02.794Z,22.06
2016-12-29T12:12:03.219Z,22.06
2016-12-29T12:13:02.844Z,22.03
2016-12-29T12:14:02.875Z,22.03
2016-12-29T12:15:03.297Z,22
2016-12-29T12:16:02.931Z,21.98
2016-12-29T12:17:02.558Z,22.05
2016-12-29T12:18:02.987Z,22
2016-12-29T12:19:03.412Z,22.03
2016-12-29T12:20:03.434Z,22.03
2016-12-29T12:21:03.061Z,22.06
2016-12-29T12:22:03.094Z,22.02
2016-12-29T12:23:03.123Z,21.99
2016-12-29T12:24:03.151Z,22.02
2016-12-29T12:25:03.564Z,22
2016-12-29T12:26:03.601Z,21.9
2016-12-29T12:27:02.832Z,21.9
2016-12-29T12:28:02.862Z,21.98
2016-12-29T12:29:03.679Z,21.91
2016-12-29T12:30:03.316Z,21.84
2016-12-29T12:31:03.736Z,21.94
2016-12-29T12:32:03.373Z,21.94
2016-12-29T12:33:03.002Z,21.94
2016-12-29T12:34:03.815Z,21.92
2016-12-29T12:35:03.459Z,21.99
2016-12-29T12:36:03.877Z,21.98
2016-12-29T12:37:03.909Z,22
2016-12-29T12:38:03.141Z,22.02
2016-12-29T12:39:03.169Z,22
2016-12-29T12:40:03.206Z,22.05
2016-12-29T12:41:03.635Z,22.12
2016-12-29T12:42:03.651Z,22.05
2016-12-29T12:43:03.680Z,22.02
2016-12-29T12:44:04.118Z,22.02
2016-12-29T12:45:03.729Z,22.03
2016-12-29T12:46:04.170Z,22.07
2016-12-29T12:47:04.179Z,22.07
2016-12-29T12:48:04.216Z,22.09
2016-12-29T12:49:03.841Z,22.06
2016-12-29T12:50:03.469Z,22.12
2016-12-29T12:51:03.898Z,22.09
2016-12-29T12:52:03.958Z,22.05
2016-12-29T12:53:03.970Z,22.05
2016-12-29T12:54:03.972Z,22.06
2016-12-29T12:55:03.604Z,22.07
2016-12-29T12:56:03.638Z,22